Time;durP1;ratioP1;P1;durP2;ratioP2;P2;SDS_P1;SDS_P2;PMS_P1;PMS_P2;Temp;Humidity;BMP_temperature;BMP_pressure;BME280_temperature;BME280_humidity;BME280_pressure;Samples;Min_cycle;Max_cycle;Signal;HPM_P1;HPM_P2
2022/03/25 00:01:52;;;;;;;;;;;4.80;99.90;;;;;;5118575;27;19924;-69
2022/03/25 00:04:18;;;;;;;;;;;4.60;99.90;;;;;;5136492;27;19931;-72
2022/03/25 00:06:44;;;;;;;;;;;5.30;99.90;;;;;;5136448;27;19923;-71
2022/03/25 00:09:09;;;;;;;;;;;5.10;99.90;;;;;;5136576;27;20378;-71
2022/03/25 00:11:35;;;;;;;;;;;5.30;99.90;;;;;;5136437;27;19983;-70
2022/03/25 00:14:01;;;;;;;;;;;4.90;99.90;;;;;;5118089;27;19924;-73
2022/03/25 00:16:27;;;;;;;;;;;5.60;99.90;;;;;;5136471;27;19930;-72
2022/03/25 00:18:54;;;;;;;;;;;4.80;99.90;;;;;;5117771;27;20283;-72
2022/03/25 00:21:20;;;;;;;;;;;4.30;99.90;;;;;;5136063;27;19934;-70
2022/03/25 00:23:46;;;;;;;;;;;4.60;99.90;;;;;;5118279;27;19924;-70
2022/03/25 00:26:11;;;;;;;;;;;4.20;99.90;;;;;;5136151;27;19923;-71
2022/03/25 00:28:37;;;;;;;;;;;5.30;99.90;;;;;;5136042;27;19949;-70
2022/03/25 00:31:06;;;;;;;;;;;4.90;99.90;;;;;;5136031;27;20385;-72
2022/03/25 00:33:36;;;;;;;;;;;5.10;99.90;;;;;;5117535;27;19955;-70
2022/03/25 00:36:02;;;;;;;;;;;4.00;99.90;;;;;;5135822;27;19927;-71
2022/03/25 00:38:28;;;;;;;;;;;4.10;99.90;;;;;;5135956;27;19923;-70
2022/03/25 00:40:53;;;;;;;;;;;5.10;99.90;;;;;;5135874;27;19924;-72
2022/03/25 00:43:20;;;;;;;;;;;4.80;99.90;;;;;;5135955;27;19965;-70
2022/03/25 00:45:46;;;;;;;;;;;4.20;99.90;;;;;;5135772;27;19975;-70
2022/03/25 00:48:13;;;;;;;;;;;5.40;99.90;;;;;;5135702;27;19931;-71
2022/03/25 00:50:39;;;;;;;;;;;2.90;99.90;;;;;;5135525;27;20425;-70
2022/03/25 00:53:05;;;;;;;;;;;4.40;99.90;;;;;;5135719;27;20022;-69
2022/03/25 00:55:30;;;;;;;;;;;4.80;99.90;;;;;;5135523;27;20022;-71
2022/03/25 00:57:58;;;;;;;;;;;4.00;99.90;;;;;;5135578;27;20378;-71
2022/03/25 01:00:23;;;;;;;;;;;5.10;99.90;;;;;;5135592;27;19975;-70
2022/03/25 01:02:49;;;;;;;;;;;4.80;99.90;;;;;;5135351;27;19923;-70
2022/03/25 01:05:14;;;;;;;;;;;3.80;99.90;;;;;;5135289;27;19927;-69
2022/03/25 01:07:40;;;;;;;;;;;3.80;99.90;;;;;;5135586;27;20370;-70
2022/03/25 01:10:06;;;;;;;;;;;4.50;99.90;;;;;;5117273;27;20378;-71
2022/03/25 01:12:31;;;;;;;;;;;3.80;99.90;;;;;;5116722;27;19966;-70
2022/03/25 01:14:57;;;;;;;;;;;3.80;99.90;;;;;;5135252;27;19976;-71
2022/03/25 01:17:22;;;;;;;;;;;5.20;99.90;;;;;;5117146;27;20009;-72
2022/03/25 01:19:48;;;;;;;;;;;3.90;99.90;;;;;;5135060;27;19931;-70
2022/03/25 01:22:15;;;;;;;;;;;5.70;99.90;;;;;;5134828;27;19930;-70
2022/03/25 01:24:40;;;;;;;;;;;3.90;99.90;;;;;;5115990;27;20344;-70
2022/03/25 01:27:06;;;;;;;;;;;3.90;99.90;;;;;;5135185;27;19927;-70
2022/03/25 01:29:31;;;;;;;;;;;4.80;99.90;;;;;;5135079;27;20294;-69
2022/03/25 01:31:57;;;;;;;;;;;3.90;99.90;;;;;;5134874;27;20014;-70
2022/03/25 01:34:23;;;;;;;;;;;3.90;99.90;;;;;;5116247;27;19923;-71
2022/03/25 01:36:49;;;;;;;;;;;3.90;99.90;;;;;;5134824;27;19967;-70
2022/03/25 01:39:14;;;;;;;;;;;3.90;99.90;;;;;;5134981;27;20271;-70
2022/03/25 01:41:40;;;;;;;;;;;4.50;99.90;;;;;;5116952;27;20014;-69
2022/03/25 01:44:09;;;;;;;;;;;4.00;99.90;;;;;;5134910;27;20401;-70
2022/03/25 01:46:34;;;;;;;;;;;4.00;99.90;;;;;;5134819;27;19949;-70
2022/03/25 01:49:00;;;;;;;;;;;5.10;99.90;;;;;;5134652;27;19934;-72
2022/03/25 01:51:28;;;;;;;;;;;4.00;99.90;;;;;;5134384;27;20364;-70
2022/03/25 01:53:54;;;;;;;;;;;3.90;99.90;;;;;;5134497;27;20022;-70
2022/03/25 01:56:23;;;;;;;;;;;4.00;99.90;;;;;;5134719;28;19923;-71
2022/03/25 01:58:49;;;;;;;;;;;3.90;99.90;;;;;;5116720;28;19930;-72
2022/03/25 02:01:15;;;;;;;;;;;3.90;99.90;;;;;;5134446;28;19923;-71
2022/03/25 02:03:40;;;;;;;;;;;3.90;99.90;;;;;;5134529;28;19934;-71
2022/03/25 02:06:06;;;;;;;;;;;5.00;99.90;;;;;;5134432;28;19928;-70
2022/03/25 02:08:32;;;;;;;;;;;4.60;99.90;;;;;;5134490;28;19928;-71
2022/03/25 02:10:58;;;;;;;;;;;4.60;99.90;;;;;;5134576;28;19948;-71
2022/03/25 02:13:24;;;;;;;;;;;4.50;99.90;;;;;;5116255;28;19930;-70
2022/03/25 02:15:49;;;;;;;;;;;5.90;99.90;;;;;;5134520;28;20010;-70
2022/03/25 02:18:18;;;;;;;;;;;4.00;99.90;;;;;;5134473;28;19930;-71
2022/03/25 02:20:44;;;;;;;;;;;4.00;99.90;;;;;;5115628;28;19949;-70
2022/03/25 02:23:10;;;;;;;;;;;4.00;99.90;;;;;;5116451;28;19923;-70
2022/03/25 02:25:35;;;;;;;;;;;4.20;99.90;;;;;;5134608;28;19930;-70
2022/03/25 02:28:02;;;;;;;;;;;4.20;99.90;;;;;;5134544;28;20022;-70
2022/03/25 02:30:29;;;;;;;;;;;5.70;99.90;;;;;;5134404;28;19924;-71
2022/03/25 02:33:00;;;;;;;;;;;2.60;99.90;;;;;;5115945;28;19927;-69
2022/03/25 02:35:40;;;;;;;;;;;4.60;99.90;;;;;;5136986;27;19924;-70
2022/03/25 02:38:06;;;;;;;;;;;4.40;99.90;;;;;;5138389;27;19923;-71
2022/03/25 02:40:32;;;;;;;;;;;4.40;99.90;;;;;;5120011;27;19923;-70
2022/03/25 02:42:58;;;;;;;;;;;4.40;99.90;;;;;;5138217;27;19931;-70
2022/03/25 02:45:23;;;;;;;;;;;4.50;99.90;;;;;;5138059;27;19923;-71
2022/03/25 02:47:49;;;;;;;;;;;5.20;99.90;;;;;;5138066;27;19930;-72
2022/03/25 02:50:15;;;;;;;;;;;5.50;99.90;;;;;;5137898;27;20362;-70
2022/03/25 02:52:41;;;;;;;;;;;4.50;99.90;;;;;;5138134;27;19930;-69
2022/03/25 02:55:08;;;;;;;;;;;5.70;99.90;;;;;;5122316;27;19957;-70
2022/03/25 02:57:34;;;;;;;;;;;4.50;99.90;;;;;;5158613;27;19923;-70
2022/03/25 03:00:00;;;;;;;;;;;4.60;99.90;;;;;;5158590;27;19927;-71
2022/03/25 03:02:26;;;;;;;;;;;4.90;99.90;;;;;;5158497;27;19923;-70
2022/03/25 03:04:51;;;;;;;;;;;4.50;99.90;;;;;;5158431;27;20036;-69
2022/03/25 03:07:17;;;;;;;;;;;4.40;99.90;;;;;;5158387;27;19923;-71
2022/03/25 03:09:43;;;;;;;;;;;5.30;99.90;;;;;;5158282;27;19968;-70
2022/03/25 03:12:10;;;;;;;;;;;4.50;99.90;;;;;;5140027;27;19953;-70
2022/03/25 03:14:36;;;;;;;;;;;4.50;99.90;;;;;;5139821;27;20377;-71
2022/03/25 03:17:02;;;;;;;;;;;4.70;99.90;;;;;;5158232;27;20013;-70
2022/03/25 03:19:28;;;;;;;;;;;4.50;99.90;;;;;;5139268;27;19923;-70
2022/03/25 03:21:53;;;;;;;;;;;3.60;99.90;;;;;;5158122;27;20410;-71
2022/03/25 03:24:20;;;;;;;;;;;4.90;99.90;;;;;;5158207;27;19923;-71
2022/03/25 03:26:45;;;;;;;;;;;4.60;99.90;;;;;;5158007;27;20369;-70
2022/03/25 03:29:12;;;;;;;;;;;4.60;99.90;;;;;;5158102;27;19923;-71
2022/03/25 03:31:38;;;;;;;;;;;4.60;99.90;;;;;;5139748;27;19923;-70
2022/03/25 03:34:03;;;;;;;;;;;5.70;99.90;;;;;;5157870;27;19923;-70
2022/03/25 03:36:29;;;;;;;;;;;4.60;99.90;;;;;;5157868;27;19923;-71
2022/03/25 03:38:54;;;;;;;;;;;4.60;99.90;;;;;;5139845;27;19927;-69
2022/03/25 03:41:20;;;;;;;;;;;5.80;99.90;;;;;;5139633;27;19934;-71
2022/03/25 03:43:45;;;;;;;;;;;5.40;99.90;;;;;;5139370;27;19930;-70
2022/03/25 03:46:11;;;;;;;;;;;4.40;99.90;;;;;;5139167;27;19968;-70
2022/03/25 03:48:37;;;;;;;;;;;4.30;99.90;;;;;;5157549;27;19923;-71
2022/03/25 03:51:02;;;;;;;;;;;5.00;99.90;;;;;;5157483;27;19923;-70
2022/03/25 03:53:28;;;;;;;;;;;4.40;99.90;;;;;;5122250;27;20281;-70
2022/03/25 03:55:53;;;;;;;;;;;4.30;99.90;;;;;;5157196;27;19923;-70
2022/03/25 03:58:22;;;;;;;;;;;4.30;99.90;;;;;;5157252;27;19923;-70
2022/03/25 04:00:49;;;;;;;;;;;4.60;99.90;;;;;;5122403;27;19927;-70
2022/03/25 04:03:14;;;;;;;;;;;4.10;99.90;;;;;;5157331;27;19923;-70
2022/03/25 04:05:40;;;;;;;;;;;5.40;99.90;;;;;;5157329;27;20074;-70
2022/03/25 04:08:07;;;;;;;;;;;3.90;99.90;;;;;;5157251;27;20349;-70
2022/03/25 04:10:33;;;;;;;;;;;3.80;99.90;;;;;;5157319;27;20396;-70
2022/03/25 04:12:59;;;;;;;;;;;3.70;99.90;;;;;;5138774;27;19930;-70
2022/03/25 04:15:24;;;;;;;;;;;4.70;99.90;;;;;;5138735;27;19983;-69
2022/03/25 04:17:50;;;;;;;;;;;3.60;99.90;;;;;;5157127;27;19934;-71
2022/03/25 04:20:16;;;;;;;;;;;3.50;99.90;;;;;;5138855;27;20278;-70
2022/03/25 04:22:45;;;;;;;;;;;1.90;99.90;;;;;;5157196;27;19923;-70
2022/03/25 04:25:11;;;;;;;;;;;4.70;99.90;;;;;;5156896;27;19926;-69
2022/03/25 04:27:51;;;;;;;;;;;4.00;99.90;;;;;;5138820;27;19930;-71
2022/03/25 04:30:17;;;;;;;;;;;3.20;99.90;;;;;;5138458;27;19923;-71
2022/03/25 04:32:42;;;;;;;;;;;1.70;99.90;;;;;;5156682;27;19927;-70
2022/03/25 04:35:09;;;;;;;;;;;4.90;99.90;;;;;;5138247;27;19923;-69
2022/03/25 04:37:35;;;;;;;;;;;3.00;99.90;;;;;;5138650;27;19927;-70
2022/03/25 04:40:01;;;;;;;;;;;2.90;99.90;;;;;;5156727;27;20431;-69
2022/03/25 04:42:27;;;;;;;;;;;3.00;99.90;;;;;;5156628;27;19948;-71
2022/03/25 04:44:53;;;;;;;;;;;3.00;99.90;;;;;;5138160;27;19923;-69
2022/03/25 04:47:18;;;;;;;;;;;2.90;99.90;;;;;;5156520;27;19923;-69
2022/03/25 04:49:44;;;;;;;;;;;2.80;99.90;;;;;;5156372;27;19923;-70
2022/03/25 04:52:10;;;;;;;;;;;2.90;99.90;;;;;;5156401;27;19923;-69
2022/03/25 04:54:36;;;;;;;;;;;2.70;99.90;;;;;;5137848;27;19923;-71
2022/03/25 04:57:03;;;;;;;;;;;3.60;99.90;;;;;;5155556;27;20382;-70
2022/03/25 04:59:28;;;;;;;;;;;2.50;99.90;;;;;;5156404;27;19930;-70
2022/03/25 05:01:55;;;;;;;;;;;0.80;99.90;;;;;;5156166;27;19927;-71
2022/03/25 05:04:20;;;;;;;;;;;3.50;99.90;;;;;;5156165;27;19978;-70
2022/03/25 05:06:46;;;;;;;;;;;4.40;99.90;;;;;;5156002;27;20019;-71
2022/03/25 05:09:13;;;;;;;;;;;2.70;99.90;;;;;;5156108;27;19975;-71
2022/03/25 05:11:38;;;;;;;;;;;3.20;99.90;;;;;;5137569;27;20274;-70
2022/03/25 05:14:04;;;;;;;;;;;2.90;99.90;;;;;;5137821;27;19945;-71
2022/03/25 05:16:30;;;;;;;;;;;2.40;99.90;;;;;;5156013;27;20320;-70
2022/03/25 05:18:55;;;;;;;;;;;2.40;99.90;;;;;;5155983;27;20456;-69
2022/03/25 05:21:21;;;;;;;;;;;3.20;99.90;;;;;;5132459;27;20366;-69
2022/03/25 05:23:46;;;;;;;;;;;2.30;99.90;;;;;;5152441;27;19927;-69
2022/03/25 05:26:12;;;;;;;;;;;2.90;99.90;;;;;;5155571;27;19970;-69
2022/03/25 05:28:37;;;;;;;;;;;2.30;99.90;;;;;;5155829;27;19923;-68
2022/03/25 05:31:03;;;;;;;;;;;2.10;99.90;;;;;;5155941;27;19923;-70
2022/03/25 05:33:29;;;;;;;;;;;4.00;99.90;;;;;;5155593;27;20015;-71
2022/03/25 05:35:54;;;;;;;;;;;2.30;99.90;;;;;;5155512;27;19975;-69
2022/03/25 05:38:20;;;;;;;;;;;2.30;99.90;;;;;;5155442;27;19927;-70
2022/03/25 05:40:45;;;;;;;;;;;2.50;99.90;;;;;;5155662;27;19923;-70
2022/03/25 05:43:12;;;;;;;;;;;2.70;99.90;;;;;;5155729;27;19929;-69
2022/03/25 05:45:38;;;;;;;;;;;4.20;99.90;;;;;;5155616;27;19923;-71
2022/03/25 05:48:04;;;;;;;;;;;1.70;99.90;;;;;;5155618;27;19931;-71
2022/03/25 05:50:29;;;;;;;;;;;2.20;99.90;;;;;;5155857;27;20355;-70
2022/03/25 05:52:55;;;;;;;;;;;2.30;99.90;;;;;;5137001;27;19923;-69
2022/03/25 05:55:20;;;;;;;;;;;2.30;99.90;;;;;;5155155;27;19966;-69
2022/03/25 05:57:46;;;;;;;;;;;2.30;99.90;;;;;;5155488;27;19977;-69
2022/03/25 06:00:13;;;;;;;;;;;3.20;99.90;;;;;;5155281;27;20023;-70
2022/03/25 06:02:40;;;;;;;;;;;2.40;99.90;;;;;;5155359;27;19981;-70
2022/03/25 06:05:06;;;;;;;;;;;2.90;99.90;;;;;;5136845;27;19974;-69
2022/03/25 06:07:39;;;;;;;;;;;2.50;99.90;;;;;;5155152;27;19974;-69
2022/03/25 06:10:06;;;;;;;;;;;2.50;99.90;;;;;;5141375;27;19955;-69
2022/03/25 06:12:31;;;;;;;;;;;2.50;99.90;;;;;;5159585;27;19923;-71
2022/03/25 06:14:57;;;;;;;;;;;3.30;99.90;;;;;;5141058;27;20266;-69
2022/03/25 06:17:22;;;;;;;;;;;2.60;99.90;;;;;;5159501;27;20025;-69
2022/03/25 06:19:48;;;;;;;;;;;2.30;99.90;;;;;;5159436;27;19923;-71
2022/03/25 06:22:14;;;;;;;;;;;2.30;99.90;;;;;;5159559;27;19923;-70
2022/03/25 06:24:39;;;;;;;;;;;4.00;99.90;;;;;;5159511;27;19942;-70
2022/03/25 06:27:05;;;;;;;;;;;2.30;99.90;;;;;;5159354;27;19923;-68
2022/03/25 06:29:31;;;;;;;;;;;2.30;99.90;;;;;;5159373;27;19927;-70
2022/03/25 06:31:56;;;;;;;;;;;2.30;99.90;;;;;;5159153;27;20397;-70
2022/03/25 06:34:23;;;;;;;;;;;2.20;99.90;;;;;;5159075;27;20009;-69
2022/03/25 06:36:49;;;;;;;;;;;2.90;99.90;;;;;;5140639;27;19930;-71
2022/03/25 06:39:15;;;;;;;;;;;3.60;99.90;;;;;;5158791;27;19927;-70
2022/03/25 06:41:40;;;;;;;;;;;2.90;99.90;;;;;;5159070;27;19995;-72
2022/03/25 06:44:06;;;;;;;;;;;2.40;99.90;;;;;;5159083;27;20026;-70
2022/03/25 06:46:32;;;;;;;;;;;3.80;99.90;;;;;;5140722;27;19929;-69
2022/03/25 06:48:58;;;;;;;;;;;2.90;99.90;;;;;;5158891;27;20015;-69
2022/03/25 06:51:23;;;;;;;;;;;2.80;99.90;;;;;;5135186;27;19924;-70
2022/03/25 06:53:49;;;;;;;;;;;2.80;99.90;;;;;;5119802;27;19930;-70
2022/03/25 06:56:15;;;;;;;;;;;2.90;99.90;;;;;;5158410;27;19923;-69
2022/03/25 06:58:41;;;;;;;;;;;3.00;99.90;;;;;;5158777;27;19978;-69
2022/03/25 07:01:07;;;;;;;;;;;3.10;99.90;;;;;;5158680;27;19927;-70
2022/03/25 07:03:33;;;;;;;;;;;3.10;99.90;;;;;;5158573;27;20021;-69
2022/03/25 07:06:00;;;;;;;;;;;3.20;99.90;;;;;;5158538;27;20010;-68
2022/03/25 07:08:27;;;;;;;;;;;3.20;99.90;;;;;;5158420;27;19923;-70
2022/03/25 07:10:53;;;;;;;;;;;3.30;99.90;;;;;;5158289;27;19930;-69
2022/03/25 07:13:19;;;;;;;;;;;3.40;99.90;;;;;;5140023;27;19923;-70
2022/03/25 07:15:44;;;;;;;;;;;3.50;99.90;;;;;;5123117;27;20370;-70
2022/03/25 07:18:10;;;;;;;;;;;3.00;99.90;;;;;;5140168;27;20431;-70
2022/03/25 07:20:35;;;;;;;;;;;3.80;99.90;;;;;;5157487;27;19946;-71
2022/03/25 07:23:01;;;;;;;;;;;4.30;99.90;;;;;;5158093;27;19946;-69
2022/03/25 07:25:30;;;;;;;;;;;3.80;99.90;;;;;;5139644;27;19923;-69
2022/03/25 07:27:56;;;;;;;;;;;3.90;99.90;;;;;;5158219;27;20335;-70
2022/03/25 07:30:22;;;;;;;;;;;4.00;99.90;;;;;;5158220;27;20022;-70
2022/03/25 07:32:48;;;;;;;;;;;4.10;99.90;;;;;;5157679;27;19923;-70
2022/03/25 07:35:14;;;;;;;;;;;4.60;99.90;;;;;;5139703;27;19945;-71
2022/03/25 07:37:40;;;;;;;;;;;4.30;99.90;;;;;;5157803;27;20330;-71
2022/03/25 07:40:09;;;;;;;;;;;5.20;99.90;;;;;;5139372;27;19962;-71
2022/03/25 07:42:35;;;;;;;;;;;4.60;99.90;;;;;;5157966;27;19923;-70
2022/03/25 07:45:01;;;;;;;;;;;5.30;99.90;;;;;;5139411;27;19950;-70
2022/03/25 07:47:27;;;;;;;;;;;4.90;99.90;;;;;;5157755;27;19923;-71
2022/03/25 07:49:52;;;;;;;;;;;5.40;99.90;;;;;;5157735;27;19930;-69
2022/03/25 07:52:18;;;;;;;;;;;6.00;99.90;;;;;;5149216;27;20281;-70
2022/03/25 07:54:44;;;;;;;;;;;5.50;99.90;;;;;;5157263;27;20332;-71
2022/03/25 07:57:10;;;;;;;;;;;5.40;99.90;;;;;;5157598;27;19927;-69
2022/03/25 07:59:36;;;;;;;;;;;5.90;99.90;;;;;;5157656;27;19923;-68
2022/03/25 08:02:02;;;;;;;;;;;6.20;99.90;;;;;;5157474;27;19923;-68
2022/03/25 08:04:27;;;;;;;;;;;5.80;99.90;;;;;;5157492;27;20274;-72
2022/03/25 08:06:54;;;;;;;;;;;7.00;99.90;;;;;;5157336;27;19931;-69
2022/03/25 08:09:19;;;;;;;;;;;6.10;99.90;;;;;;5121914;27;19974;-70
2022/03/25 08:11:45;;;;;;;;;;;6.10;99.90;;;;;;5156996;27;19923;-69
2022/03/25 08:14:14;;;;;;;;;;;6.30;99.90;;;;;;5157313;27;20397;-72
2022/03/25 08:16:42;;;;;;;;;;;4.70;99.90;;;;;;5138669;27;19923;-70
2022/03/25 08:19:07;;;;;;;;;;;6.50;99.90;;;;;;5157161;27;19975;-70
2022/03/25 08:21:33;;;;;;;;;;;7.70;99.90;;;;;;5157055;27;20006;-70
2022/03/25 08:29:27;;;;;;;;;;;7.60;99.90;;;;;;5156928;27;19984;-70
2022/03/25 08:31:53;;;;;;;;;;;7.10;99.90;;;;;;5155725;27;19923;-69
2022/03/25 08:34:19;;;;;;;;;;;6.00;99.90;;;;;;5156706;27;19923;-69
2022/03/25 08:36:45;;;;;;;;;;;7.40;99.90;;;;;;5156541;27;20397;-70
2022/03/25 08:39:11;;;;;;;;;;;7.50;99.90;;;;;;5156745;27;20377;-70
2022/03/25 08:41:37;;;;;;;;;;;7.60;99.90;;;;;;5156748;27;19984;-69
2022/03/25 08:44:03;;;;;;;;;;;7.70;99.90;;;;;;5156689;27;20013;-70
2022/03/25 08:46:29;;;;;;;;;;;7.90;99.90;;;;;;5156407;27;20294;-70
2022/03/25 08:48:55;;;;;;;;;;;7.90;99.90;;;;;;5156350;27;19931;-70
2022/03/25 08:51:20;;;;;;;;;;;8.10;99.90;;;;;;5156336;27;19940;-70
2022/03/25 08:53:46;;;;;;;;;;;8.40;99.90;;;;;;5137764;27;20332;-71
2022/03/25 08:56:12;;;;;;;;;;;8.30;99.90;;;;;;5155997;27;20339;-70
2022/03/25 08:58:39;;;;;;;;;;;8.40;99.90;;;;;;5137490;27;19993;-71
2022/03/25 09:01:04;;;;;;;;;;;9.00;99.90;;;;;;5156259;27;19930;-69
2022/03/25 09:03:30;;;;;;;;;;;8.70;99.90;;;;;;5156278;27;19927;-70
2022/03/25 09:05:55;;;;;;;;;;;9.30;99.90;;;;;;5156136;27;19959;-70
2022/03/25 09:08:21;;;;;;;;;;;9.00;99.90;;;;;;5156042;27;19923;-69
2022/03/25 09:10:47;;;;;;;;;;;9.10;99.90;;;;;;5156240;27;19924;-70
2022/03/25 09:13:13;;;;;;;;;;;9.20;99.90;;;;;;5156096;27;19948;-70
2022/03/25 09:15:38;;;;;;;;;;;9.60;99.90;;;;;;5156075;27;19923;-70
2022/03/25 09:18:04;;;;;;;;;;;9.40;99.90;;;;;;5120156;27;20376;-69
2022/03/25 09:20:30;;;;;;;;;;;9.60;99.90;;;;;;5155927;27;19923;-69
2022/03/25 09:22:56;;;;;;;;;;;9.70;99.90;;;;;;5155755;27;19931;-70
2022/03/25 09:25:25;;;;;;;;;;;9.80;99.90;;;;;;5137016;27;19923;-70
2022/03/25 09:27:51;;;;;;;;;;;9.90;99.90;;;;;;5155799;27;19957;-70
2022/03/25 09:30:17;;;;;;;;;;;10.00;99.90;;;;;;5155736;27;19924;-70
2022/03/25 09:32:42;;;;;;;;;;;10.20;99.90;;;;;;5137054;27;19976;-70
2022/03/25 09:35:08;;;;;;;;;;;10.50;99.90;;;;;;5155675;27;19929;-70
2022/03/25 09:37:38;;;;;;;;;;;10.30;99.90;;;;;;5155499;27;20354;-71
2022/03/25 09:40:05;;;;;;;;;;;10.50;99.90;;;;;;5155707;27;19927;-70
2022/03/25 09:42:32;;;;;;;;;;;10.60;99.90;;;;;;5155578;27;19927;-69
2022/03/25 09:44:59;;;;;;;;;;;10.60;99.90;;;;;;5155441;27;20019;-70
2022/03/25 09:47:24;;;;;;;;;;;10.60;99.90;;;;;;5155420;27;19927;-69
2022/03/25 09:49:51;;;;;;;;;;;10.70;99.90;;;;;;5155155;27;19935;-72
2022/03/25 09:52:18;;;;;;;;;;;11.20;99.90;;;;;;5155228;27;19930;-70
2022/03/25 09:54:45;;;;;;;;;;;10.90;99.90;;;;;;5163451;27;20209;-69
2022/03/25 09:57:11;;;;;;;;;;;10.90;99.90;;;;;;5176038;27;19923;-72
2022/03/25 09:59:36;;;;;;;;;;;11.00;99.90;;;;;;5156537;27;19923;-71
2022/03/25 10:02:02;;;;;;;;;;;11.10;99.90;;;;;;5157831;27;20395;-72
2022/03/25 10:04:40;;;;;;;;;;;11.10;99.90;;;;;;5175734;27;20422;-71
2022/03/25 10:07:17;;;;;;;;;;;11.20;99.90;;;;;;5174335;27;19927;-70
2022/03/25 10:09:43;;;;;;;;;;;11.30;99.90;;;;;;5155975;27;20361;-71
2022/03/25 10:12:19;;;;;;;;;;;11.40;99.90;;;;;;5136359;27;19923;-70
2022/03/25 10:14:46;;;;;;;;;;;11.60;99.90;;;;;;5136345;27;20417;-68
2022/03/25 10:17:11;;;;;;;;;;;11.70;99.90;;;;;;5170144;27;19923;-69
2022/03/25 10:19:46;;;;;;;;;;;11.90;99.90;;;;;;5164797;27;19968;-68
2022/03/25 10:22:14;;;;;;;;;;;12.00;99.90;;;;;;5154890;27;20362;-69
2022/03/25 10:24:52;;;;;;;;;;;12.00;99.90;;;;;;5154791;27;20374;-69
2022/03/25 10:27:28;;;;;;;;;;;12.10;99.90;;;;;;5136220;27;19985;-68
2022/03/25 10:29:57;;;;;;;;;;;12.30;99.90;;;;;;5136402;27;19974;-68
2022/03/25 10:32:26;;;;;;;;;;;12.40;99.90;;;;;;5154461;27;19946;-68
2022/03/25 10:35:06;;;;;;;;;;;12.40;99.90;;;;;;5154703;27;19946;-68
2022/03/25 10:37:32;;;;;;;;;;;12.50;99.90;;;;;;5154570;27;19950;-68
2022/03/25 10:39:58;;;;;;;;;;;12.60;99.90;;;;;;5154461;27;19930;-68
2022/03/25 10:42:23;;;;;;;;;;;12.60;99.90;;;;;;5136046;27;20328;-68
2022/03/25 10:44:49;;;;;;;;;;;12.80;99.90;;;;;;5153470;27;19931;-70
2022/03/25 10:47:15;;;;;;;;;;;13.00;99.90;;;;;;5154759;27;20023;-69
2022/03/25 10:49:43;;;;;;;;;;;13.00;98.30;;;;;;5154449;27;20307;-72
2022/03/25 10:52:30;;;;;;;;;;;13.10;99.90;;;;;;5154441;27;19934;-68
2022/03/25 10:55:15;;;;;;;;;;;13.20;99.90;;;;;;5136182;27;19923;-67
2022/03/25 10:57:51;;;;;;;;;;;13.30;93.60;;;;;;5158361;27;19981;-68
2022/03/25 11:00:17;;;;;;;;;;;13.40;80.50;;;;;;5158342;27;19923;-69
2022/03/25 11:02:44;;;;;;;;;;;13.40;84.10;;;;;;5158160;27;19930;-67
2022/03/25 11:05:10;;;;;;;;;;;13.50;83.00;;;;;;5158040;27;20413;-68
2022/03/25 11:07:36;;;;;;;;;;;13.50;79.50;;;;;;5156612;27;19923;-68
2022/03/25 11:10:02;;;;;;;;;;;13.60;90.10;;;;;;5157771;27;20014;-69
2022/03/25 11:12:31;;;;;;;;;;;13.70;92.20;;;;;;5158262;27;20063;-69
2022/03/25 11:14:59;;;;;;;;;;;13.80;82.50;;;;;;5139587;27;19923;-68
2022/03/25 11:17:27;;;;;;;;;;;13.90;90.20;;;;;;5158085;27;19930;-70
2022/03/25 11:19:56;;;;;;;;;;;14.00;97.10;;;;;;5158173;27;20414;-68
2022/03/25 11:22:22;;;;;;;;;;;14.10;98.80;;;;;;5139918;27;19967;-69
2022/03/25 11:24:50;;;;;;;;;;;14.20;95.00;;;;;;5157812;27;19962;-69
2022/03/25 11:27:17;;;;;;;;;;;14.30;95.40;;;;;;5139664;27;19923;-68
2022/03/25 11:29:45;;;;;;;;;;;14.40;86.30;;;;;;5157992;27;19935;-68
2022/03/25 11:32:11;;;;;;;;;;;14.40;92.20;;;;;;5139319;27;19976;-68
2022/03/25 11:35:03;;;;;;;;;;;14.50;83.20;;;;;;5139582;27;20466;-68
2022/03/25 11:37:30;;;;;;;;;;;14.50;90.20;;;;;;5156925;27;19976;-69
2022/03/25 11:40:25;;;;;;;;;;;14.60;85.10;;;;;;5139321;27;19927;-68
2022/03/25 11:42:52;;;;;;;;;;;14.60;83.00;;;;;;5139487;27;19999;-68
2022/03/25 11:45:20;;;;;;;;;;;14.60;80.00;;;;;;5157603;27;19981;-68
2022/03/25 11:48:07;;;;;;;;;;;14.70;79.10;;;;;;5157445;27;19929;-68
2022/03/25 11:50:34;;;;;;;;;;;14.80;77.20;;;;;;5140240;27;19923;-69
2022/03/25 11:53:11;;;;;;;;;;;14.80;68.80;;;;;;5157512;27;20029;-70
2022/03/25 11:55:56;;;;;;;;;;;14.80;71.40;;;;;;5121690;27;19975;-68
2022/03/25 11:58:22;;;;;;;;;;;14.90;67.30;;;;;;5157168;27;19927;-69
2022/03/25 12:00:48;;;;;;;;;;;14.90;67.20;;;;;;5157356;27;19981;-69
2022/03/25 12:03:15;;;;;;;;;;;15.00;68.30;;;;;;5157009;27;19962;-70
2022/03/25 12:05:56;;;;;;;;;;;15.00;68.50;;;;;;5138838;27;19942;-69
2022/03/25 12:08:22;;;;;;;;;;;15.00;66.80;;;;;;5138709;27;19929;-69
2022/03/25 12:10:49;;;;;;;;;;;15.10;65.40;;;;;;5156847;27;19923;-69
2022/03/25 12:13:15;;;;;;;;;;;15.10;67.70;;;;;;5156707;27;19923;-69
2022/03/25 12:15:45;;;;;;;;;;;15.10;68.40;;;;;;5157092;27;19927;-68
2022/03/25 12:18:29;;;;;;;;;;;15.10;68.70;;;;;;5157059;27;19970;-69
2022/03/25 12:20:55;;;;;;;;;;;15.10;68.50;;;;;;5156767;27;20382;-68
2022/03/25 12:23:20;;;;;;;;;;;15.20;67.80;;;;;;5156849;27;19979;-68
2022/03/25 12:25:46;;;;;;;;;;;15.20;63.60;;;;;;5156469;27;19927;-68
2022/03/25 12:28:11;;;;;;;;;;;15.30;62.70;;;;;;5156817;27;19929;-70
2022/03/25 12:30:37;;;;;;;;;;;15.20;63.30;;;;;;5138408;27;19977;-70
2022/03/25 12:33:07;;;;;;;;;;;15.20;64.00;;;;;;5156572;27;20389;-69
2022/03/25 12:35:35;;;;;;;;;;;15.20;63.00;;;;;;5138332;27;19923;-68
2022/03/25 12:38:00;;;;;;;;;;;15.20;62.30;;;;;;5156418;27;19927;-70
2022/03/25 12:40:28;;;;;;;;;;;15.20;64.60;;;;;;5156257;27;19982;-69
2022/03/25 12:42:53;;;;;;;;;;;15.30;65.40;;;;;;5156601;27;19923;-69
2022/03/25 12:45:29;;;;;;;;;;;15.30;65.70;;;;;;5138297;27;19946;-69
2022/03/25 12:47:55;;;;;;;;;;;15.30;66.90;;;;;;5156417;27;19923;-69
2022/03/25 12:50:23;;;;;;;;;;;15.30;65.60;;;;;;5137646;27;19927;-69
2022/03/25 12:52:59;;;;;;;;;;;15.30;66.10;;;;;;5155956;27;19923;-69
2022/03/25 12:55:25;;;;;;;;;;;15.30;65.10;;;;;;5125335;27;19977;-69
2022/03/25 12:57:51;;;;;;;;;;;15.30;63.50;;;;;;5115004;28;19932;-69
2022/03/25 13:00:16;;;;;;;;;;;15.30;63.60;;;;;;5114859;28;19931;-70
2022/03/25 13:02:43;;;;;;;;;;;15.30;64.90;;;;;;5114615;28;19934;-69
2022/03/25 13:05:10;;;;;;;;;;;15.30;65.90;;;;;;5113086;28;19924;-69
2022/03/25 13:07:36;;;;;;;;;;;15.30;65.80;;;;;;5114515;28;19924;-70
2022/03/25 13:10:02;;;;;;;;;;;15.30;64.80;;;;;;5113773;28;19930;-70
2022/03/25 13:12:29;;;;;;;;;;;15.40;62.50;;;;;;5114563;28;19968;-69
2022/03/25 13:14:54;;;;;;;;;;;15.40;65.40;;;;;;5114651;28;19928;-68
2022/03/25 13:17:27;;;;;;;;;;;15.40;64.30;;;;;;5113132;28;20053;-69
2022/03/25 13:19:56;;;;;;;;;;;15.40;63.30;;;;;;5114223;28;20304;-69
2022/03/25 13:22:21;;;;;;;;;;;15.40;63.60;;;;;;5113479;28;19998;-69
2022/03/25 13:24:51;;;;;;;;;;;15.40;63.20;;;;;;5113591;28;20056;-69
2022/03/25 13:27:17;;;;;;;;;;;15.40;64.70;;;;;;5114461;28;19931;-68
2022/03/25 13:29:42;;;;;;;;;;;15.40;65.20;;;;;;5114499;28;19924;-69
2022/03/25 13:32:08;;;;;;;;;;;15.40;65.20;;;;;;5113101;28;20365;-69
2022/03/25 13:34:36;;;;;;;;;;;15.40;66.10;;;;;;5114252;28;20467;-71
2022/03/25 13:37:01;;;;;;;;;;;15.40;64.60;;;;;;5114047;28;19924;-70
2022/03/25 13:39:31;;;;;;;;;;;15.40;63.50;;;;;;5114417;28;20018;-69
2022/03/25 13:42:00;;;;;;;;;;;15.40;65.70;;;;;;5114141;28;20445;-70
2022/03/25 13:44:26;;;;;;;;;;;15.40;64.90;;;;;;5113231;28;19923;-70
2022/03/25 13:46:55;;;;;;;;;;;15.50;65.60;;;;;;5114124;28;20341;-70
2022/03/25 13:49:22;;;;;;;;;;;15.50;67.70;;;;;;5113965;28;19928;-70
2022/03/25 13:51:47;;;;;;;;;;;15.50;66.40;;;;;;5113798;28;19927;-69
2022/03/25 13:54:26;;;;;;;;;;;15.50;66.20;;;;;;5114093;28;19923;-70
2022/03/25 13:56:52;;;;;;;;;;;15.60;65.50;;;;;;5151646;27;19927;-71
2022/03/25 13:59:24;;;;;;;;;;;15.50;65.50;;;;;;5155213;27;20022;-72
2022/03/25 14:01:49;;;;;;;;;;;15.60;67.30;;;;;;5155093;27;19948;-72
2022/03/25 14:04:16;;;;;;;;;;;15.60;65.60;;;;;;5154968;27;20010;-72
2022/03/25 14:06:49;;;;;;;;;;;15.60;66.00;;;;;;5155142;27;19963;-71
2022/03/25 14:09:26;;;;;;;;;;;15.60;64.40;;;;;;5155229;27;19923;-68
2022/03/25 14:11:52;;;;;;;;;;;15.60;64.70;;;;;;5154883;27;20385;-69
2022/03/25 14:14:31;;;;;;;;;;;15.60;63.50;;;;;;5136067;27;19923;-69
2022/03/25 14:16:57;;;;;;;;;;;15.60;63.20;;;;;;5154905;27;19977;-68
2022/03/25 14:19:23;;;;;;;;;;;15.60;61.70;;;;;;5155127;27;20294;-71
2022/03/25 14:21:48;;;;;;;;;;;15.60;62.40;;;;;;5155065;27;20011;-69
2022/03/25 14:26:58;;;;;;;;;;;15.60;62.20;;;;;;5154784;27;19931;-70
2022/03/25 14:29:24;;;;;;;;;;;15.70;60.70;;;;;;5155794;27;19923;-71
2022/03/25 14:31:50;;;;;;;;;;;15.70;61.00;;;;;;5158919;27;20301;-69
2022/03/25 14:34:16;;;;;;;;;;;15.70;57.90;;;;;;5158854;27;19923;-71